M/V Eren C — 3EDF4 — position and weather

sailwx.info

Track history (hours):
 
Tides and Currents Weather Stations Pressure Air Temp Water Temp Dewpoint Dewpoint Depression Visibility Wind Speed Wind Dir Waves Ship Positions

M/V Eren C

Last reported at 2017-Dec-11 14:39 UTC. Time now 2017-Dec-14 13:05 UTC.
Position N 43°31' E 028°55'.

Length 128 m; draft 7.9 m.

Type: Ship. MMSI: 371564000.

Date/timePositionNaut miles runAvg speedWind from/ knotsBaromVisibWave heightAir tempDewpointWater temp
2017-Dec-11 14:39N 43°31' E 028°55'1 7.8
2017-Dec-11 14:28N 43°33' E 028°55'6 7.9
2017-Dec-11 13:43N 43°39' E 028°54'2 7.7
2017-Dec-11 13:30N 43°40' E 028°54'4 7.7
2017-Dec-11 13:00N 43°44' E 028°54'4 7.8
2017-Dec-11 12:30N 43°48' E 028°54'4 8.0
2017-Dec-11 12:00N 43°52' E 028°56'4 8.2
2017-Dec-11 11:30N 43°56' E 028°57'4 8.8
2017-Dec-11 11:00N 44°00' E 028°58'4 8.6
2017-Dec-11 10:30N 44°04' E 028°59'4 8.5
2017-Dec-11 10:00N 44°07' E 029°03'4 8.3
2017-Dec-11 09:30N 44°10' E 029°08'4 8.2
2017-Dec-11 09:00N 44°13' E 029°12'4 8.1
2017-Dec-11 08:30N 44°15' E 029°16'4 8.1
2017-Dec-11 08:00N 44°18' E 029°21'4 8.0
2017-Dec-11 07:30N 44°21' E 029°25'4 7.8
2017-Dec-11 07:01N 44°24' E 029°29'4 7.6
2017-Dec-11 06:30N 44°26' E 029°33'132 3.0
2017-Dec-09 09:53N 46°24' E 030°57'4 8.8
2017-Dec-09 09:23N 46°28' E 030°56'4 9.0
2017-Dec-09 08:59N 46°32' E 030°56'4 7.7
2017-Dec-09 08:27N 46°34' E 031°00'  
2017-Dec-03 17:55N 46°35' E 031°02'0 0.0
2017-Dec-03 14:48N 46°35' E 031°02'1 1.7
2017-Dec-03 14:26N 46°34' E 031°02'410.1
2017-Dec-03 14:00N 46°32' E 030°57'610.8
2017-Dec-03 13:30N 46°26' E 030°57'511.1
2017-Dec-03 13:00N 46°21' E 030°57'  
Track history (hours):
 
Tides and Currents Weather Stations Pressure Air Temp Water Temp Dewpoint Dewpoint Depression Visibility Wind Speed Wind Dir Waves Ship Positions

M/V Eren C

Last reported at 2017-Dec-11 14:39 UTC. Time now 2017-Dec-14 13:05 UTC.
Position N 43°31' E 028°55'.

Length 128 m; draft 7.9 m.

Type: Ship. MMSI: 371564000.

Date/timePositionNaut miles runAvg speedWind from/ knotsBaromVisibWave heightAir tempDewpointWater temp
2017-Dec-11 14:39N 43°31' E 028°55'1 7.8
2017-Dec-11 14:28N 43°33' E 028°55'6 7.9
2017-Dec-11 13:43N 43°39' E 028°54'2 7.7
2017-Dec-11 13:30N 43°40' E 028°54'4 7.7
2017-Dec-11 13:00N 43°44' E 028°54'4 7.8
2017-Dec-11 12:30N 43°48' E 028°54'4 8.0
2017-Dec-11 12:00N 43°52' E 028°56'4 8.2
2017-Dec-11 11:30N 43°56' E 028°57'4 8.8
2017-Dec-11 11:00N 44°00' E 028°58'4 8.6
2017-Dec-11 10:30N 44°04' E 028°59'4 8.5
2017-Dec-11 10:00N 44°07' E 029°03'4 8.3
2017-Dec-11 09:30N 44°10' E 029°08'4 8.2
2017-Dec-11 09:00N 44°13' E 029°12'4 8.1
2017-Dec-11 08:30N 44°15' E 029°16'4 8.1
2017-Dec-11 08:00N 44°18' E 029°21'4 8.0
2017-Dec-11 07:30N 44°21' E 029°25'4 7.8
2017-Dec-11 07:01N 44°24' E 029°29'4 7.6
2017-Dec-11 06:30N 44°26' E 029°33'132 3.0
2017-Dec-09 09:53N 46°24' E 030°57'4 8.8
2017-Dec-09 09:23N 46°28' E 030°56'4 9.0
2017-Dec-09 08:59N 46°32' E 030°56'4 7.7
2017-Dec-09 08:27N 46°34' E 031°00'  
2017-Dec-03 17:55N 46°35' E 031°02'0 0.0
2017-Dec-03 14:48N 46°35' E 031°02'1 1.7
2017-Dec-03 14:26N 46°34' E 031°02'410.1
2017-Dec-03 14:00N 46°32' E 030°57'610.8
2017-Dec-03 13:30N 46°26' E 030°57'511.1
2017-Dec-03 13:00N 46°21' E 030°57'  

Dump ship's entire track history